Time;durP1;ratioP1;P1;durP2;ratioP2;P2;SDS_P1;SDS_P2;PMS_P1;PMS_P2;Temp;Humidity;BMP_temperature;BMP_pressure;BME280_temperature;BME280_humidity;BME280_pressure;Samples;Min_cycle;Max_cycle;Signal;HPM_P1;HPM_P2
2022/01/10 00:00:10;;;;;;;;;55.25;46.00;;;;;5.43;78.46;100766.22;4997861;28;46858;-76
2022/01/10 00:02:35;;;;;;;;;58.75;46.00;;;;;5.32;79.74;100757.91;4996575;28;45239;-75
2022/01/10 00:05:01;;;;;;;;;53.75;42.00;;;;;5.15;79.22;100737.88;5002641;28;45404;-75
2022/01/10 00:07:26;;;;;;;;;56.50;44.50;;;;;5.33;78.89;100777.13;5003912;28;45522;-75
2022/01/10 00:09:51;;;;;;;;;50.25;43.25;;;;;5.36;79.28;100775.53;5017316;28;48107;-75
2022/01/10 00:12:17;;;;;;;;;55.50;43.75;;;;;5.34;78.52;100777.19;5003870;28;45506;-75
2022/01/10 00:14:42;;;;;;;;;55.00;45.00;;;;;5.34;79.40;100789.41;5003982;28;45261;-75
2022/01/10 00:17:07;;;;;;;;;46.25;41.00;;;;;5.38;78.76;100797.47;5002849;28;45992;-75
2022/01/10 00:19:33;;;;;;;;;55.00;43.00;;;;;5.33;79.33;100791.13;4996843;28;46354;-75
2022/01/10 00:21:58;;;;;;;;;43.25;37.25;;;;;5.39;79.62;100803.63;5005074;28;45267;-76
2022/01/10 00:24:24;;;;;;;;;58.75;46.25;;;;;5.43;79.10;100802.91;4996680;28;45559;-76
2022/01/10 00:26:49;;;;;;;;;58.25;44.50;;;;;5.41;79.57;100799.34;5020637;28;45948;-76
2022/01/10 00:29:15;;;;;;;;;55.00;44.50;;;;;5.51;79.14;100803.25;4997963;28;47921;-76
2022/01/10 00:31:40;;;;;;;;;58.25;49.25;;;;;5.46;79.58;100803.06;5005908;28;45329;-76
2022/01/10 00:34:06;;;;;;;;;60.00;48.50;;;;;5.35;79.77;100781.63;4997951;28;45436;-75
2022/01/10 00:36:31;;;;;;;;;60.50;48.25;;;;;5.56;79.60;100817.47;5005324;28;45290;-75
2022/01/10 00:38:57;;;;;;;;;68.75;54.50;;;;;5.51;79.41;100806.78;5003645;28;47347;-76
2022/01/10 00:41:22;;;;;;;;;65.25;53.75;;;;;5.64;79.20;100823.97;5005404;28;45290;-76
2022/01/10 00:43:50;;;;;;;;;71.50;55.50;;;;;5.59;79.24;100821.13;4999254;28;45250;-75
2022/01/10 00:46:15;;;;;;;;;71.00;57.25;;;;;5.39;79.41;100777.41;5004226;28;46478;-76
2022/01/10 00:48:41;;;;;;;;;71.00;56.67;;;;;5.50;79.31;100809.34;4999993;28;45999;-75
2022/01/10 00:51:07;;;;;;;;;76.00;60.00;;;;;5.37;79.97;100786.91;5005335;28;45352;-76
2022/01/10 00:53:33;;;;;;;;;70.25;55.00;;;;;5.53;79.40;100819.97;4997997;28;45714;-75
2022/01/10 00:55:58;;;;;;;;;71.25;57.00;;;;;5.57;79.32;100817.56;5005141;28;45328;-75
2022/01/10 00:58:24;;;;;;;;;71.67;57.00;;;;;5.57;79.43;100814.00;4998932;28;46260;-75
2022/01/10 01:00:51;;;;;;;;;69.25;54.75;;;;;5.73;79.02;100836.59;5005439;28;45337;-75
2022/01/10 01:03:17;;;;;;;;;67.50;55.50;;;;;5.76;79.64;100836.72;4998520;28;45495;-75
2022/01/10 01:05:43;;;;;;;;;71.00;57.00;;;;;5.68;78.95;100824.97;5000146;28;46195;-74
2022/01/10 01:08:11;;;;;;;;;67.50;55.00;;;;;5.56;79.20;100804.38;5000696;28;45404;-75
2022/01/10 01:13:31;;;;;;;;;73.50;57.50;;;;;5.66;78.62;100835.41;4999424;28;45402;-75
2022/01/10 01:26:47;;;;;;;;;71.00;56.00;;;;;5.68;79.50;100857.34;4982843;28;45399;-75
2022/01/10 01:29:16;;;;;;;;;72.00;56.00;;;;;5.77;78.18;100877.84;4992652;28;45651;-76
2022/01/10 01:31:42;;;;;;;;;63.75;53.50;;;;;5.71;78.45;100870.59;5000484;28;45570;-75
2022/01/10 01:34:08;;;;;;;;;68.25;53.00;;;;;5.64;78.44;100876.41;4994827;28;45198;-75
2022/01/10 01:36:35;;;;;;;;;64.00;53.00;;;;;5.69;78.54;100885.38;5000584;28;45356;-76
2022/01/10 01:39:05;;;;;;;;;63.00;52.00;;;;;5.65;78.65;100877.28;4990576;28;45619;-75
2022/01/10 01:43:55;;;;;;;;;64.00;48.25;;;;;5.72;78.68;100918.72;4995169;28;45439;-75
2022/01/10 01:46:22;;;;;;;;;64.75;48.25;;;;;5.57;78.79;100905.78;5001503;28;45235;-75
2022/01/10 01:48:48;;;;;;;;;66.50;48.50;;;;;5.44;78.77;100887.72;4995071;28;45658;-75
2022/01/10 01:51:14;;;;;;;;;60.25;47.75;;;;;5.59;78.76;100910.28;5001462;28;45156;-76
2022/01/10 01:53:40;;;;;;;;;58.25;49.00;;;;;5.57;78.38;100921.50;4993926;28;45417;-75
2022/01/10 01:56:07;;;;;;;;;63.50;48.00;;;;;5.34;78.59;100887.25;4999788;28;46314;-75
2022/01/10 01:58:34;;;;;;;;;63.00;52.50;;;;;5.63;78.72;100939.25;4993589;28;47200;-75
2022/01/10 02:01:00;;;;;;;;;67.25;54.50;;;;;5.60;78.71;100932.13;5001257;28;45381;-75
2022/01/10 02:03:25;;;;;;;;;64.25;54.00;;;;;5.57;78.97;100927.69;4991324;28;45366;-73
2022/01/10 02:05:51;;;;;;;;;70.67;57.00;;;;;5.50;78.76;100916.84;4996139;28;45486;-73
2022/01/10 02:08:16;;;;;;;;;66.50;53.75;;;;;5.57;78.73;100945.09;4997187;28;46395;-73
2022/01/10 02:10:41;;;;;;;;;73.67;58.67;;;;;5.45;78.53;100920.97;4998957;28;45272;-74
2022/01/10 02:13:07;;;;;;;;;68.75;55.50;;;;;5.39;78.39;100927.69;4996893;28;45379;-74
2022/01/10 02:16:31;;;;;;;;;69.25;55.00;;;;;5.47;79.06;100956.00;5015293;28;45948;-73
2022/01/10 02:18:21;;;;;;;;;72.75;56.00;;;;;5.37;79.05;100947.69;4987343;28;45223;-76
2022/01/10 02:20:47;;;;;;;;;73.00;57.67;;;;;5.29;78.97;100937.66;5027054;28;45817;-73
2022/01/10 02:23:14;;;;;;;;;68.00;55.33;;;;;5.26;78.74;100927.03;4996601;28;45326;-73
2022/01/10 02:25:41;;;;;;;;;68.33;56.67;;;;;5.25;78.69;100935.75;4998946;28;47166;-73
2022/01/10 02:28:07;;;;;;;;;73.50;57.25;;;;;5.10;79.27;100920.19;4994792;28;45409;-74
2022/01/10 02:30:33;;;;;;;;;74.00;59.00;;;;;5.30;78.55;100952.59;4982903;28;45313;-73
2022/01/10 02:33:00;;;;;;;;;71.33;58.00;;;;;5.25;79.16;100940.97;4998161;28;45420;-73
2022/01/10 02:35:39;;;;;;;;;70.33;55.67;;;;;5.21;79.15;100933.78;4995441;28;44829;-73
2022/01/10 02:38:05;;;;;;;;;62.50;51.25;;;;;5.26;79.05;100942.78;4994463;28;45601;-74
2022/01/10 02:40:32;;;;;;;;;69.67;55.33;;;;;5.13;78.21;100930.81;5000471;28;45327;-73
2022/01/10 02:42:58;;;;;;;;;62.25;52.25;;;;;5.11;78.43;100959.56;4993160;28;45211;-74
2022/01/10 02:45:24;;;;;;;;;73.33;58.33;;;;;5.08;78.69;100969.88;5000175;28;45432;-74
2022/01/10 02:47:50;;;;;;;;;77.50;57.25;;;;;5.06;78.87;100961.03;4995652;28;45417;-73
2022/01/10 02:50:18;;;;;;;;;65.50;53.00;;;;;5.11;79.00;100979.63;5014322;28;45259;-74
2022/01/10 02:52:44;;;;;;;;;76.00;58.00;;;;;5.01;78.42;100985.22;4996452;28;45257;-73
2022/01/10 02:55:11;;;;;;;;;71.75;57.00;;;;;4.76;79.19;100957.84;4997070;28;45528;-73
2022/01/10 02:57:37;;;;;;;;;72.75;58.00;;;;;4.96;78.76;100998.09;4997067;28;48112;-73
2022/01/10 03:00:10;;;;;;;;;71.75;54.75;;;;;4.82;78.28;100970.34;5024859;28;45420;-74
2022/01/10 03:02:36;;;;;;;;;72.25;57.25;;;;;4.91;78.95;101003.09;4995184;28;45438;-73
2022/01/10 03:05:04;;;;;;;;;73.00;57.33;;;;;4.86;79.38;100993.22;4998648;28;46603;-73
2022/01/10 03:07:29;;;;;;;;;66.00;53.75;;;;;4.75;78.79;100982.19;4997975;28;46746;-74
2022/01/10 03:09:55;;;;;;;;;66.50;54.00;;;;;4.72;78.57;100980.31;4996868;28;45270;-72
2022/01/10 03:12:21;;;;;;;;;69.67;57.00;;;;;4.77;78.23;101001.50;4996480;28;45204;-73
2022/01/10 03:14:47;;;;;;;;;60.25;50.50;;;;;4.69;78.76;100988.03;5013753;28;46341;-73
2022/01/10 03:17:12;;;;;;;;;72.33;56.00;;;;;4.75;78.27;101008.38;4998203;28;45438;-74
2022/01/10 03:19:39;;;;;;;;;73.00;58.00;;;;;4.52;79.21;100993.22;4991591;28;45397;-74
2022/01/10 03:22:06;;;;;;;;;63.00;50.50;;;;;4.48;80.04;100994.75;4997987;28;45393;-74
2022/01/10 03:24:31;;;;;;;;;70.00;55.67;;;;;4.47;79.58;101006.97;4991688;28;45500;-74
2022/01/10 03:26:57;;;;;;;;;77.00;58.33;;;;;4.41;80.01;101000.53;5014653;28;47666;-74
2022/01/10 03:29:22;;;;;;;;;71.00;56.33;;;;;4.57;79.92;101037.16;4994231;28;45380;-73
2022/01/10 03:31:48;;;;;;;;;74.33;59.67;;;;;4.58;79.74;101028.47;5000158;28;45567;-73
2022/01/10 03:34:13;;;;;;;;;67.00;50.67;;;;;4.22;79.49;100975.09;4994611;28;45360;-73
2022/01/10 03:36:40;;;;;;;;;79.67;60.33;;;;;4.28;81.83;100991.13;4998718;28;45342;-74
2022/01/10 03:39:06;;;;;;;;;71.00;56.33;;;;;4.43;80.67;101025.94;4993357;28;45302;-73
2022/01/10 03:41:32;;;;;;;;;75.33;57.00;;;;;4.40;80.13;101017.94;4999770;28;45245;-76
2022/01/10 03:43:57;;;;;;;;;71.00;56.67;;;;;4.59;79.84;101053.81;4993125;28;45527;-76
2022/01/10 03:46:23;;;;;;;;;73.33;56.67;;;;;4.55;79.67;101045.72;4998741;28;46435;-76
2022/01/10 03:48:48;;;;;;;;;72.67;56.33;;;;;4.45;79.26;101018.16;4993249;28;45287;-76
2022/01/10 03:51:13;;;;;;;;;77.67;59.33;;;;;4.54;79.64;101033.44;4999712;28;45475;-75
2022/01/10 03:53:39;;;;;;;;;73.67;58.67;;;;;4.40;79.72;101015.31;4993005;28;45464;-75
2022/01/10 03:56:05;;;;;;;;;74.00;57.00;;;;;4.67;79.83;101062.06;4999371;28;46719;-75
2022/01/10 03:58:30;;;;;;;;;71.67;57.00;;;;;4.60;79.30;101057.34;4993207;28;45247;-76
2022/01/10 04:00:56;;;;;;;;;68.33;56.00;;;;;4.67;79.71;101073.44;5014908;28;45306;-75
2022/01/10 04:03:22;;;;;;;;;78.33;57.67;;;;;4.56;79.54;101053.66;4993743;28;45535;-75
2022/01/10 04:05:48;;;;;;;;;72.00;56.33;;;;;4.67;78.93;101073.44;4995614;28;45275;-74
2022/01/10 04:08:14;;;;;;;;;72.00;55.67;;;;;4.52;78.86;101058.66;4994860;28;45271;-75
2022/01/10 04:10:39;;;;;;;;;66.67;53.67;;;;;4.61;78.70;101090.56;4996559;28;45243;-76
2022/01/10 04:13:05;;;;;;;;;84.00;65.33;;;;;4.49;79.22;101086.47;4999287;28;45236;-75
2022/01/10 04:15:30;;;;;;;;;74.00;56.67;;;;;4.48;78.70;101086.38;4998027;28;47506;-76
2022/01/10 04:17:57;;;;;;;;;74.67;60.67;;;;;4.43;79.30;101085.25;4999403;28;45227;-76
2022/01/10 04:20:24;;;;;;;;;138.75;117.50;;;;;4.28;79.62;101060.88;4999594;28;45253;-75
2022/01/10 04:22:49;;;;;;;;;87.67;68.33;;;;;4.41;79.95;101100.88;4999278;28;45332;-75
2022/01/10 04:25:15;;;;;;;;;212.00;173.00;;;;;4.22;79.76;101058.81;4999181;28;45326;-76
2022/01/10 04:27:41;;;;;;;;;79.33;60.33;;;;;4.14;79.85;101050.56;4998987;28;45876;-75
2022/01/10 04:30:06;;;;;;;;;220.50;191.75;;;;;4.31;79.56;101095.03;4998272;28;45335;-76
2022/01/10 04:32:33;;;;;;;;;92.00;74.33;;;;;4.10;79.32;101061.69;4999068;28;45327;-75
2022/01/10 04:34:59;;;;;;;;;79.33;62.33;;;;;4.16;80.05;101079.41;4998974;28;46477;-75
2022/01/10 04:37:25;;;;;;;;;87.00;67.33;;;;;4.29;79.73;101122.88;4999181;28;45313;-75
2022/01/10 04:39:50;;;;;;;;;86.33;66.33;;;;;4.16;79.88;101097.75;4999291;28;45468;-75
2022/01/10 04:42:15;;;;;;;;;80.00;61.67;;;;;4.09;78.91;101085.13;4997501;28;45823;-75
2022/01/10 04:44:41;;;;;;;;;75.00;59.67;;;;;4.24;79.44;101115.66;4998863;28;46177;-75
2022/01/10 04:47:08;;;;;;;;;83.33;63.33;;;;;4.11;78.65;101118.41;4997916;28;45338;-75
2022/01/10 04:49:54;;;;;;;;;88.33;68.33;;;;;4.14;79.49;101136.88;5002596;28;45162;-75
2022/01/10 04:52:18;;;;;;;;;139.00;117.75;;;;;4.00;79.87;101123.03;5002284;28;45583;-75
2022/01/10 04:54:44;;;;;;;;;72.67;57.67;;;;;4.01;79.99;101137.94;5002269;28;46498;-75
2022/01/10 04:57:09;;;;;;;;;76.33;60.00;;;;;3.94;79.77;101129.66;5000796;28;45425;-74
2022/01/10 04:59:34;;;;;;;;;94.00;76.00;;;;;3.98;78.96;101143.00;5002462;28;45363;-75
2022/01/10 05:01:59;;;;;;;;;89.67;68.33;;;;;3.88;80.29;101139.75;5002132;28;45273;-75
2022/01/10 05:04:25;;;;;;;;;116.75;104.50;;;;;3.98;79.94;101166.53;5002115;28;45285;-75
2022/01/10 05:06:50;;;;;;;;;111.00;94.67;;;;;3.85;80.60;101143.09;5000834;28;45314;-75
2022/01/10 05:09:15;;;;;;;;;97.33;79.33;;;;;3.80;79.81;101126.25;5002625;28;45237;-75
2022/01/10 05:11:41;;;;;;;;;80.67;62.33;;;;;3.76;79.50;101134.75;5001752;28;45357;-75
2022/01/10 05:14:06;;;;;;;;;77.33;59.33;;;;;3.95;79.76;101166.38;5017130;28;47279;-75
2022/01/10 05:16:32;;;;;;;;;70.67;55.00;;;;;3.87;79.91;101162.41;5001980;28;45487;-76
2022/01/10 05:18:57;;;;;;;;;92.00;69.00;;;;;3.74;79.13;101147.72;5001042;28;45306;-76
2022/01/10 05:21:23;;;;;;;;;89.33;69.33;;;;;3.86;79.71;101170.16;5000577;28;46336;-75
2022/01/10 05:23:48;;;;;;;;;97.00;83.00;;;;;3.74;79.47;101162.50;5002113;28;45495;-75
2022/01/10 05:26:14;;;;;;;;;136.00;120.25;;;;;3.70;79.49;101158.81;5001778;28;45248;-75
2022/01/10 05:28:39;;;;;;;;;102.33;81.33;;;;;3.69;79.22;101163.94;5002290;28;45230;-75
2022/01/10 05:31:05;;;;;;;;;97.00;85.67;;;;;3.88;79.83;101207.75;5000612;28;47006;-75
2022/01/10 05:33:31;;;;;;;;;133.00;119.25;;;;;3.76;79.83;101195.78;5002121;28;46063;-75
2022/01/10 05:35:56;;;;;;;;;93.33;76.00;;;;;3.61;79.47;101173.06;5001424;28;45388;-76
2022/01/10 05:38:22;;;;;;;;;102.33;86.00;;;;;3.57;80.34;101182.44;5001986;28;45314;-76
2022/01/10 05:40:47;;;;;;;;;84.00;65.33;;;;;3.77;80.27;101218.47;5000051;28;45747;-75
2022/01/10 05:43:12;;;;;;;;;77.00;60.33;;;;;3.68;80.30;101206.59;5000331;28;48231;-75
2022/01/10 05:45:42;;;;;;;;;77.67;61.00;;;;;3.59;79.98;101194.78;5001496;28;44730;-75
2022/01/10 05:48:11;;;;;;;;;79.67;60.67;;;;;3.46;79.97;101176.59;5000487;28;45383;-75
2022/01/10 05:50:37;;;;;;;;;80.33;61.33;;;;;3.55;79.52;101203.25;5001487;28;45568;-75
2022/01/10 05:53:04;;;;;;;;;91.67;71.67;;;;;3.62;79.80;101216.72;5001723;28;45870;-75
2022/01/10 05:55:29;;;;;;;;;82.00;61.67;;;;;3.70;80.17;101246.81;5001682;28;45279;-76
2022/01/10 05:57:55;;;;;;;;;78.67;61.00;;;;;3.72;79.81;101250.41;5001492;28;45340;-75
2022/01/10 06:00:21;;;;;;;;;78.00;59.00;;;;;3.71;79.40;101256.44;4999551;28;47086;-75
2022/01/10 06:02:47;;;;;;;;;92.67;73.00;;;;;3.67;79.95;101259.69;5001536;28;45332;-75
2022/01/10 06:05:12;;;;;;;;;91.33;69.67;;;;;3.58;79.47;101255.75;5000015;28;45354;-75
2022/01/10 06:07:37;;;;;;;;;79.67;62.00;;;;;3.60;80.01;101266.25;5001507;28;45322;-76
2022/01/10 06:10:05;;;;;;;;;74.67;59.00;;;;;3.51;80.54;101263.09;5001357;28;45289;-75
2022/01/10 06:12:30;;;;;;;;;92.33;68.00;;;;;3.44;79.32;101253.97;5001261;28;45691;-75
2022/01/10 06:14:56;;;;;;;;;78.33;62.33;;;;;3.56;79.19;101277.38;5001516;28;45236;-75
2022/01/10 06:17:21;;;;;;;;;81.33;62.00;;;;;3.41;79.80;101264.25;5000187;28;45195;-76
2022/01/10 06:19:47;;;;;;;;;85.33;67.33;;;;;3.39;79.16;101271.13;5001018;28;45249;-75
2022/01/10 06:22:12;;;;;;;;;92.33;71.33;;;;;3.42;80.04;101280.81;5001271;28;45483;-76
2022/01/10 06:24:38;;;;;;;;;95.67;75.67;;;;;3.23;80.52;101264.06;5000890;28;45171;-75
2022/01/10 06:27:03;;;;;;;;;75.00;59.33;;;;;3.37;80.54;101283.19;5000953;28;45287;-75
2022/01/10 06:29:29;;;;;;;;;271.75;202.25;;;;;3.42;80.11;101297.44;4999571;28;46955;-75
2022/01/10 06:31:54;;;;;;;;;103.67;87.00;;;;;3.30;80.13;101288.81;5001183;28;45616;-76
2022/01/10 06:34:19;;;;;;;;;97.00;77.33;;;;;3.32;79.85;101295.94;5000929;28;45370;-76
2022/01/10 06:36:45;;;;;;;;;122.25;102.50;;;;;3.36;79.07;101308.41;4999570;28;45372;-76
2022/01/10 06:39:11;;;;;;;;;260.50;213.50;;;;;3.17;80.14;101297.63;5000959;28;45358;-76
2022/01/10 06:41:37;;;;;;;;;100.67;86.67;;;;;3.33;80.05;101328.19;4999319;28;47000;-76
2022/01/10 06:44:03;;;;;;;;;88.67;67.33;;;;;3.24;79.90;101327.63;5000676;28;45312;-76
2022/01/10 06:46:28;;;;;;;;;93.00;70.33;;;;;3.32;78.95;101356.03;5001079;28;45362;-76
2022/01/10 06:48:53;;;;;;;;;96.67;73.67;;;;;3.20;80.34;101346.56;4993990;28;47017;-76
2022/01/10 06:51:19;;;;;;;;;87.00;67.00;;;;;3.12;80.75;101339.13;4981029;28;46601;-76
2022/01/10 06:53:44;;;;;;;;;92.33;73.67;;;;;3.31;80.30;101379.47;4979682;28;45278;-75
2022/01/10 06:56:09;;;;;;;;;102.75;86.50;;;;;3.23;79.62;101372.88;4979673;28;45658;-75
2022/01/10 06:58:35;;;;;;;;;96.33;74.33;;;;;3.10;80.07;101361.63;4979463;28;46107;-74
2022/01/10 07:01:00;;;;;;;;;81.67;66.00;;;;;3.16;80.15;101386.34;4980839;28;46201;-75
2022/01/10 07:03:25;;;;;;;;;95.33;75.33;;;;;2.86;80.70;101365.31;4980764;28;45219;-74
2022/01/10 07:05:51;;;;;;;;;80.00;60.00;;;;;2.85;81.45;101363.50;4979360;28;45196;-73
2022/01/10 07:08:16;;;;;;;;;91.67;68.00;;;;;2.89;81.29;101373.34;4980572;28;45364;-73
2022/01/10 07:10:41;;;;;;;;;103.00;88.67;;;;;3.09;80.38;101404.22;4979806;28;45409;-74
2022/01/10 07:13:07;;;;;;;;;86.67;65.33;;;;;2.40;80.33;101284.94;4979037;28;45236;-74
2022/01/10 07:15:32;;;;;;;;;162.50;140.75;;;;;3.07;80.15;101415.38;4981031;28;45243;-74
2022/01/10 07:17:58;;;;;;;;;87.00;65.67;;;;;3.18;80.31;101439.59;4979163;28;45826;-74
2022/01/10 07:20:23;;;;;;;;;66.33;56.00;;;;;3.08;79.97;101430.25;4979215;28;47281;-74
2022/01/10 07:22:48;;;;;;;;;98.33;79.00;;;;;3.05;80.34;101416.97;4980489;28;45436;-74
2022/01/10 07:25:14;;;;;;;;;101.00;80.67;;;;;3.31;79.67;101470.94;4979514;28;45338;-73
2022/01/10 07:27:39;;;;;;;;;74.00;56.33;;;;;3.15;81.17;101440.28;4980127;28;45417;-74
2022/01/10 07:30:05;;;;;;;;;113.25;97.25;;;;;3.10;80.85;101444.31;4980466;28;45322;-73
2022/01/10 07:32:31;;;;;;;;;77.00;61.00;;;;;3.34;80.66;101492.03;4980215;28;45546;-76
2022/01/10 07:34:57;;;;;;;;;89.00;69.00;;;;;3.11;80.71;101439.19;4980641;28;45216;-76
2022/01/10 07:37:23;;;;;;;;;98.25;81.50;;;;;3.26;79.88;101462.78;4995850;28;46184;-76
2022/01/10 07:39:48;;;;;;;;;74.33;58.33;;;;;3.26;80.65;101472.34;5015312;28;47142;-76
2022/01/10 07:42:14;;;;;;;;;88.00;67.67;;;;;3.22;80.88;101457.25;4999686;28;45404;-76
2022/01/10 07:44:39;;;;;;;;;83.00;59.33;;;;;3.48;80.51;101512.09;5000154;28;45350;-76
2022/01/10 07:47:05;;;;;;;;;80.33;60.67;;;;;3.36;80.63;101490.38;4999800;28;45287;-75
2022/01/10 07:49:31;;;;;;;;;76.00;59.00;;;;;3.45;80.35;101511.00;4999686;28;45402;-75
2022/01/10 07:51:57;;;;;;;;;63.00;51.33;;;;;3.53;80.31;101531.59;4999712;28;45215;-76
2022/01/10 07:54:24;;;;;;;;;75.00;54.00;;;;;3.45;79.76;101514.53;5000073;28;45225;-75
2022/01/10 07:56:50;;;;;;;;;76.00;57.67;;;;;3.52;80.51;101539.31;4999392;28;45448;-76
2022/01/10 07:59:16;;;;;;;;;71.67;51.33;;;;;3.30;80.42;101500.44;4999854;28;46747;-76
2022/01/10 08:01:41;;;;;;;;;67.67;52.67;;;;;3.57;80.20;101551.88;4998273;28;45315;-77
2022/01/10 08:04:06;;;;;;;;;67.00;54.33;;;;;3.42;80.81;101527.41;5000074;28;45280;-76
2022/01/10 08:06:32;;;;;;;;;66.67;51.67;;;;;3.52;80.58;101566.38;4998139;28;46050;-77
2022/01/10 08:08:57;;;;;;;;;75.33;56.33;;;;;3.23;80.31;101519.16;4999673;28;45681;-77
2022/01/10 08:11:26;;;;;;;;;64.67;51.67;;;;;3.18;80.41;101523.19;4997999;28;45668;-76
2022/01/10 08:13:52;;;;;;;;;61.00;50.67;;;;;3.54;80.84;101590.00;4998434;28;45363;-76
2022/01/10 08:16:17;;;;;;;;;68.00;49.33;;;;;3.26;80.64;101538.53;4998212;28;46456;-76
2022/01/10 08:18:42;;;;;;;;;68.67;50.00;;;;;3.41;80.39;101556.91;4998088;28;47142;-75
2022/01/10 08:21:08;;;;;;;;;65.33;52.33;;;;;3.44;80.46;101564.06;4997931;28;45593;-75
2022/01/10 08:23:33;;;;;;;;;70.67;54.33;;;;;3.42;79.97;101568.28;5001897;28;45387;-74
2022/01/10 08:25:59;;;;;;;;;67.00;52.00;;;;;3.47;79.92;101591.28;5000949;28;46628;-74
2022/01/10 08:28:24;;;;;;;;;75.33;56.67;;;;;3.36;80.05;101567.09;5002744;28;45527;-74
2022/01/10 08:30:50;;;;;;;;;65.33;50.33;;;;;3.46;80.76;101591.22;5002830;28;45298;-74
2022/01/10 08:33:15;;;;;;;;;65.00;51.67;;;;;3.53;80.32;101604.78;5002849;28;45471;-76
2022/01/10 08:35:41;;;;;;;;;65.00;52.33;;;;;3.48;79.74;101598.34;5000947;28;47251;-75
2022/01/10 08:38:06;;;;;;;;;70.67;54.33;;;;;3.26;80.12;101566.38;5017870;28;47205;-75
2022/01/10 08:40:32;;;;;;;;;64.25;52.25;;;;;3.24;80.63;101565.38;5002041;28;45310;-74
2022/01/10 08:42:59;;;;;;;;;67.25;51.50;;;;;3.47;80.53;101609.59;5000974;28;45358;-74
2022/01/10 08:45:25;;;;;;;;;61.33;50.67;;;;;3.58;80.88;101623.38;5000640;28;47305;-75
2022/01/10 08:47:51;;;;;;;;;45.50;41.25;;;;;3.65;79.85;101629.91;5001974;28;45595;-74
2022/01/10 08:50:17;;;;;;;;;74.67;57.33;;;;;3.54;79.98;101611.81;5001830;28;45242;-75
2022/01/10 08:52:42;;;;;;;;;65.67;50.00;;;;;3.58;80.21;101610.28;5000182;28;45445;-74
2022/01/10 08:55:09;;;;;;;;;66.33;53.00;;;;;3.61;80.49;101618.34;5001947;28;45250;-74
2022/01/10 08:57:35;;;;;;;;;68.50;52.75;;;;;3.78;80.17;101646.50;5001738;28;45380;-75
2022/01/10 09:00:02;;;;;;;;;65.25;50.25;;;;;3.65;80.31;101628.22;5001782;28;45420;-74
2022/01/10 09:02:28;;;;;;;;;58.00;43.50;;;;;3.60;80.01;101621.75;5002178;28;45254;-74
2022/01/10 09:04:53;;;;;;;;;77.33;61.33;;;;;3.64;80.26;101620.25;5000135;28;46086;-75
2022/01/10 09:07:19;;;;;;;;;58.00;47.00;;;;;3.94;80.39;101668.41;5000323;28;48145;-75
2022/01/10 09:09:44;;;;;;;;;54.00;46.00;;;;;3.86;80.73;101665.28;5001672;28;45199;-75
2022/01/10 09:12:11;;;;;;;;;40.00;30.50;;;;;3.81;80.87;101649.31;5001405;28;45224;-75
2022/01/10 09:14:36;;;;;;;;;58.25;43.50;;;;;3.97;80.84;101664.28;5000115;28;47560;-76
2022/01/10 09:17:03;;;;;;;;;53.25;40.75;;;;;4.17;80.80;101699.59;5000420;28;47120;-75
2022/01/10 09:19:28;;;;;;;;;44.50;39.00;;;;;4.20;80.71;101697.19;5001403;28;45211;-75
2022/01/10 09:21:54;;;;;;;;;42.25;39.00;;;;;4.21;79.90;101692.84;5001673;28;45317;-79
2022/01/10 09:24:19;;;;;;;;;42.00;34.50;;;;;4.31;79.86;101694.31;5001370;28;45271;-73
2022/01/10 09:26:45;;;;;;;;;46.75;39.50;;;;;4.12;79.43;101661.75;5000005;28;47085;-75
2022/01/10 09:29:10;;;;;;;;;37.25;31.00;;;;;4.29;79.71;101696.84;5001384;28;44862;-74
2022/01/10 09:31:36;;;;;;;;;40.00;33.25;;;;;4.25;79.12;101685.25;5000250;28;45339;-75
2022/01/10 09:34:02;;;;;;;;;38.00;33.25;;;;;4.52;79.94;101719.25;5000185;28;45523;-74
2022/01/10 09:36:29;;;;;;;;;46.50;38.25;;;;;4.41;79.28;101697.63;5001084;28;45376;-74
2022/01/10 09:38:57;;;;;;;;;46.00;37.00;;;;;4.54;79.60;101701.00;4998547;28;45298;-76
2022/01/10 09:41:24;;;;;;;;;41.25;32.50;;;;;4.37;80.01;101661.63;4999957;28;45212;-75
2022/01/10 09:44:01;;;;;;;;;40.25;35.75;;;;;4.61;79.95;101691.03;4999610;28;46237;-75
2022/01/10 09:46:27;;;;;;;;;32.25;27.75;;;;;4.84;79.12;101723.88;4999836;28;47191;-75
2022/01/10 09:48:53;;;;;;;;;49.25;40.75;;;;;4.81;78.43;101707.97;4999764;28;45375;-75
2022/01/10 09:51:21;;;;;;;;;47.00;33.25;;;;;4.76;79.07;101709.44;5000122;28;45296;-74
2022/01/10 09:53:47;;;;;;;;;87.00;67.67;;;;;4.89;78.98;101742.50;5000810;28;45385;-75
2022/01/10 09:56:12;;;;;;;;;68.50;51.50;;;;;4.81;79.13;101725.41;5000216;28;46081;-74
2022/01/10 09:58:38;;;;;;;;;49.00;39.50;;;;;4.84;78.74;101725.59;4999574;28;45318;-74
2022/01/10 10:01:03;;;;;;;;;42.25;38.25;;;;;4.90;79.07;101746.94;5000674;28;45234;-75
2022/01/10 10:03:29;;;;;;;;;98.33;83.33;;;;;5.07;79.08;101766.31;5000511;28;45482;-74
2022/01/10 10:05:57;;;;;;;;;65.00;47.00;;;;;5.10;78.63;101772.69;5000361;28;45373;-74
2022/01/10 10:08:24;;;;;;;;;62.50;47.50;;;;;5.05;78.97;101766.25;4999282;28;45481;-74
2022/01/10 10:10:51;;;;;;;;;44.75;38.50;;;;;5.05;78.04;101768.88;5000519;28;45419;-74
2022/01/10 10:13:18;;;;;;;;;55.00;43.75;;;;;5.12;78.86;101771.03;5031678;28;46245;-74
2022/01/10 10:15:45;;;;;;;;;47.00;43.00;;;;;5.12;78.81;101767.50;5000362;28;45448;-75
2022/01/10 10:18:16;;;;;;;;;75.75;57.75;;;;;5.19;78.01;101774.97;4998545;28;45290;-74
2022/01/10 10:20:43;;;;;;;;;42.25;35.25;;;;;5.17;77.94;101771.34;4999301;28;45384;-78
2022/01/10 10:23:15;;;;;;;;;45.50;38.25;;;;;5.27;79.01;101784.19;4999171;28;46165;-74
2022/01/10 10:25:51;;;;;;;;;39.75;29.75;;;;;5.13;77.94;101756.25;5029846;28;46841;-74
2022/01/10 10:28:17;;;;;;;;;37.00;32.25;;;;;5.03;77.85;101748.63;4998028;28;45268;-74
2022/01/10 10:30:42;;;;;;;;;43.25;38.00;;;;;5.21;77.74;101778.59;5000544;28;45933;-75
2022/01/10 10:33:14;;;;;;;;;53.25;41.50;;;;;5.32;78.96;101787.09;5000328;28;45396;-72
2022/01/10 10:35:39;;;;;;;;;48.00;41.50;;;;;5.38;78.65;101793.63;4997548;28;45803;-72
2022/01/10 10:38:06;;;;;;;;;57.75;41.25;;;;;5.31;77.70;101765.22;4999212;28;45362;-72
2022/01/10 10:40:38;;;;;;;;;42.00;36.00;;;;;5.30;78.16;101759.91;5000532;28;45553;-72
2022/01/10 10:43:06;;;;;;;;;49.75;41.00;;;;;5.26;78.34;101757.88;4999389;28;46251;-71
2022/01/10 10:45:32;;;;;;;;;48.00;39.75;;;;;5.43;78.28;101780.78;4999945;28;45353;-72
2022/01/10 10:47:59;;;;;;;;;41.00;38.50;;;;;5.52;78.12;101785.69;4999257;28;45309;-72
2022/01/10 10:50:28;;;;;;;;;52.00;41.50;;;;;5.48;78.66;101773.19;5000432;28;45409;-72
2022/01/10 10:52:54;;;;;;;;;52.75;39.50;;;;;5.69;77.65;101812.94;5000512;28;45431;-72
2022/01/10 10:55:19;;;;;;;;;55.75;42.00;;;;;5.58;77.92;101791.31;4998589;28;46960;-72
2022/01/10 10:57:45;;;;;;;;;58.50;43.50;;;;;5.79;77.01;101820.53;5000522;28;45339;-72
2022/01/10 11:00:15;;;;;;;;;53.25;40.75;;;;;5.79;77.86;101821.44;4999251;28;45267;-72
2022/01/10 11:02:41;;;;;;;;;50.75;42.50;;;;;5.79;77.94;101813.56;4999128;28;46857;-72
2022/01/10 11:05:08;;;;;;;;;58.75;44.75;;;;;5.70;77.87;101804.25;4995048;28;45567;-72
2022/01/10 11:07:35;;;;;;;;;49.00;41.25;;;;;5.50;77.14;101785.59;4979209;28;45408;-72
2022/01/10 11:10:07;;;;;;;;;61.75;47.50;;;;;5.61;78.28;101796.75;4979129;28;45306;-72
2022/01/10 11:12:36;;;;;;;;;48.25;40.75;;;;;5.79;77.69;101828.41;4979092;28;47714;-72
2022/01/10 11:15:03;;;;;;;;;58.25;43.25;;;;;5.71;76.78;101827.94;4980869;28;47409;-72
2022/01/10 11:17:31;;;;;;;;;55.00;41.75;;;;;5.67;78.60;101810.22;4999452;28;45475;-72
2022/01/10 11:20:12;;;;;;;;;52.00;42.50;;;;;5.74;77.07;101812.41;4999554;28;45357;-71
2022/01/10 11:22:41;;;;;;;;;55.75;42.50;;;;;5.75;78.02;101808.06;4997604;28;46968;-71
2022/01/10 11:25:24;;;;;;;;;59.00;48.75;;;;;5.66;77.60;101802.25;4999428;28;45510;-73
2022/01/10 11:27:53;;;;;;;;;52.25;41.00;;;;;5.75;77.63;101822.06;5490762;22;45881;-72